Laredo International Airport
KLRD : rendu visible

Aérodrome :











RETROUVEZ-NOUS SUR...

 
LOGIN :

S'inscrire | Disclaimer

   EN    FR    IT 

 









Légende :    VFR   VFR Marginal   IFR   IFR Intensif   IFR Très Intensif
Visi : 
Plafond : 
>= 8 km
>= 3000ft
5 à 8 km
1000 à 3000 ft
1500m à 5 km
500 à 1000 ft
800 à 1500m
200 à 500 ft
< 800m
< 200 ft
Symboles :   Orages  Brouillard  Fortes neiges  Fortes précipitations  Vent > 20 kt






- Altitude de l'aérodrome : 508 ft
- Code IATA : LRD


KLRD - Laredo International

DERNIER METAR :
  • 201056Z AUTO 01006KT 10SM BKN008 BKN019 OVC050 12/11 A3014 RMK AO2 RAE42 CIG 004V013 SLP207 P0000 T01170106

METARs EXPIRÉS :
  • 201044Z AUTO 01009KT 10SM FEW005 BKN008 OVC044 12/11 A3013 RMK AO2 RAE42 P0000
  • 201023Z AUTO 01008KT 10SM -RA FEW005 SCT016 OVC042 11/11 A3013 RMK AO2 P0000
  • 200956Z AUTO 03006KT 10SM -RA OVC005 12/11 A3014 RMK AO2 CIG 004V009 SLP208 P0001 T01170106
  • 200938Z AUTO 36008KT 8SM -RA BKN005 OVC009 12/11 A3014 RMK AO2 P0000
  • 200856Z AUTO 36008KT 10SM -RA OVC007 12/11 A3015 RMK AO2 CIG 005V010 SLP210 P0001 60002 T01170111 58000

TAF KLRD
Valide du 20 à 06h jusqu'au 21 à 06h UTC


200529Z 2006/2106 36007KT 6SM BR VCSH OVC009
TEMPO 2006/2010 4SM -DZ BR OVC007
FM201700 01015KT 6SM -RA BR VCSH OVC007
FM210300 01012KT 6SM BR OVC019



MET'MAP, la Météo Aéronautique d'un coup d'oeil ! - Copyright ORBIFLY Décembre 2007 - Disclaimer

ORBIFLY MET'MAP TEAM :

Programmation & Développement : Alexandra Zaïnal
Sur une idée originale de : Baudouin d'Aumeries
Assistance à la programmation : Marc-Olivier Méhu
Soutien technique & logistique : Manuel Goepfert

Contact : metmap@orbifly.com




SOURCES & CREDITS :

   NOAA       Earth
Advisory